createdAt,value
2023-03-01T00:01:55.802Z,97984.09
2023-03-01T00:04:23.911Z,97980.56
2023-03-01T00:06:52.312Z,97979.78
2023-03-01T00:09:20.390Z,97978.91
2023-03-01T00:11:48.548Z,97980.63
2023-03-01T00:14:17.403Z,97973.53
2023-03-01T00:16:45.893Z,97969.84
2023-03-01T00:19:16.433Z,97969.03
2023-03-01T00:21:44.633Z,97978.97
2023-03-01T00:24:12.838Z,97978.09
2023-03-01T00:26:40.957Z,97963.00
2023-03-01T00:29:09.056Z,97965.69
2023-03-01T00:31:37.212Z,97964.81
2023-03-01T00:34:07.127Z,97972.03
2023-03-01T00:36:37.811Z,97963.19
2023-03-01T00:39:06.900Z,97968.56
2023-03-01T00:41:35.801Z,97972.97
2023-03-01T00:44:04.212Z,97953.38
2023-03-01T00:46:32.819Z,97961.44
2023-03-01T00:49:03.156Z,97957.88
2023-03-01T00:51:31.400Z,97959.72
2023-03-01T00:54:01.657Z,97955.28
2023-03-01T00:56:30.904Z,97944.53
2023-03-01T00:58:59.446Z,97949.13
2023-03-01T01:01:31.655Z,97933.00
2023-03-01T01:04:00.875Z,97940.19
2023-03-01T01:06:30.176Z,97937.50
2023-03-01T01:08:58.449Z,97935.78
2023-03-01T01:11:29.702Z,97940.28
2023-03-01T01:13:58.035Z,97934.06
2023-03-01T01:16:27.437Z,97933.19
2023-03-01T01:18:55.712Z,97926.00
2023-03-01T01:21:24.619Z,97935.00
2023-03-01T01:23:53.090Z,97931.44
2023-03-01T01:26:22.140Z,97925.22
2023-03-01T01:28:52.956Z,97927.03
2023-03-01T01:31:21.193Z,97923.47
2023-03-01T01:33:49.360Z,97921.75
2023-03-01T01:36:17.480Z,97920.88
2023-03-01T01:38:45.722Z,97916.38
2023-03-01T01:41:14.102Z,97920.00
2023-03-01T01:43:43.381Z,97918.34
2023-03-01T01:46:18.402Z,97906.66
2023-03-01T01:48:50.413Z,97909.44
2023-03-01T01:51:20.828Z,97903.19
2023-03-01T01:53:50.612Z,97895.13
2023-03-01T01:56:18.735Z,97892.44
2023-03-01T01:58:48.558Z,97896.06
2023-03-01T02:01:18.183Z,97895.22
2023-03-01T02:03:46.976Z,97891.66
2023-03-01T02:06:17.892Z,97886.38
2023-03-01T02:08:46.031Z,97889.91
2023-03-01T02:11:15.558Z,97882.81
2023-03-01T02:13:43.684Z,97884.63
2023-03-01T02:16:12.398Z,97882.81
2023-03-01T02:18:42.017Z,97877.53
2023-03-01T02:21:19.887Z,97881.06
2023-03-01T02:23:48.148Z,97884.72
2023-03-01T02:26:20.993Z,97889.34
2023-03-01T02:28:50.581Z,97884.81
2023-03-01T02:31:37.579Z,97894.72
2023-03-01T02:34:06.720Z,97891.16
2023-03-01T02:36:37.987Z,97881.38
2023-03-01T02:39:08.070Z,97879.53
2023-03-01T02:41:37.620Z,97869.75
2023-03-01T02:44:07.332Z,97867.06
2023-03-01T02:46:43.601Z,97860.81
2023-03-01T02:49:26.716Z,97871.56
2023-03-01T02:52:07.240Z,97867.16
2023-03-01T02:54:38.591Z,97874.34
2023-03-01T02:57:06.877Z,97863.69
2023-03-01T02:59:40.458Z,97864.53
2023-03-01T03:02:10.048Z,97871.75
2023-03-01T03:04:38.201Z,97862.81
2023-03-01T03:07:06.513Z,97864.63
2023-03-01T03:09:34.570Z,97861.06
2023-03-01T03:12:02.879Z,97866.44
2023-03-01T03:14:36.012Z,97862.91
2023-03-01T03:17:07.744Z,97860.22
2023-03-01T03:19:36.170Z,97856.66
2023-03-01T03:22:04.512Z,97865.66
2023-03-01T03:24:39.068Z,97863.84
2023-03-01T03:27:07.460Z,97872.00
2023-03-01T03:29:35.614Z,97864.81
2023-03-01T03:32:05.406Z,97863.06
2023-03-01T03:34:33.737Z,97869.41
2023-03-01T03:37:01.959Z,97855.00
2023-03-01T03:39:35.898Z,97857.78
2023-03-01T03:42:04.085Z,97866.78
2023-03-01T03:44:32.189Z,97861.41
2023-03-01T03:47:00.519Z,97859.72
2023-03-01T03:49:30.037Z,97865.09
2023-03-01T03:51:58.357Z,97872.28
2023-03-01T03:54:26.532Z,97872.28
2023-03-01T03:56:54.774Z,97874.09
2023-03-01T03:59:22.832Z,97865.25
2023-03-01T04:01:51.030Z,97876.00
2023-03-01T04:04:19.999Z,97878.69
2023-03-01T04:06:49.999Z,97873.31
2023-03-01T04:09:18.079Z,97879.66
2023-03-01T04:11:46.188Z,97879.66
2023-03-01T04:14:14.416Z,97878.78
2023-03-01T04:16:42.674Z,97877.06
2023-03-01T04:19:10.853Z,97874.38
2023-03-01T04:21:38.985Z,97870.81
2023-03-01T04:24:10.751Z,97872.53
2023-03-01T04:26:39.017Z,97868.13
2023-03-01T04:29:07.112Z,97874.44
2023-03-01T04:31:35.281Z,97869.06
2023-03-01T04:34:03.692Z,97880.69
2023-03-01T04:36:32.305Z,97876.34
2023-03-01T04:39:00.651Z,97877.22
2023-03-01T04:41:32.391Z,97875.50
2023-03-01T04:44:01.188Z,97877.31
2023-03-01T04:46:29.829Z,97874.63
2023-03-01T04:48:58.297Z,97874.63
2023-03-01T04:51:26.332Z,97867.50
2023-03-01T04:53:54.480Z,97875.56
2023-03-01T04:56:23.992Z,97864.81
2023-03-01T04:58:55.457Z,97866.66
2023-03-01T05:01:23.642Z,97866.66
2023-03-01T05:03:52.624Z,97871.16
2023-03-01T05:06:21.824Z,97865.78
2023-03-01T05:08:49.876Z,97869.41
2023-03-01T05:11:18.058Z,97872.09
2023-03-01T05:13:46.160Z,97867.69
2023-03-01T05:16:15.808Z,97872.09
2023-03-01T05:18:44.444Z,97869.41
2023-03-01T05:21:13.703Z,97869.41
2023-03-01T05:23:41.828Z,97860.50
2023-03-01T05:26:22.423Z,97872.97
2023-03-01T05:29:00.284Z,97865.88
2023-03-01T05:31:31.768Z,97864.91
2023-03-01T05:34:00.153Z,97864.91
2023-03-01T05:36:28.391Z,97858.66
2023-03-01T05:38:56.932Z,97862.22
2023-03-01T05:41:25.075Z,97867.69
2023-03-01T05:43:53.312Z,97870.28
2023-03-01T05:46:21.580Z,97865.78
2023-03-01T05:48:51.220Z,97871.16
2023-03-01T05:51:19.784Z,97871.16
2023-03-01T05:53:47.890Z,97874.72
2023-03-01T05:56:16.042Z,97871.16
2023-03-01T05:58:44.304Z,97869.34
2023-03-01T06:01:14.420Z,97865.78
2023-03-01T06:03:42.662Z,97878.25
2023-03-01T06:06:12.216Z,97872.88
2023-03-01T06:08:40.493Z,97874.63
2023-03-01T06:11:11.742Z,97883.56
2023-03-01T06:13:39.984Z,97885.28
2023-03-01T06:16:09.085Z,97888.06
2023-03-01T06:18:37.210Z,97884.41
2023-03-01T06:21:05.820Z,97885.19
2023-03-01T06:23:35.400Z,97895.94
2023-03-01T06:26:06.916Z,97891.44
2023-03-01T06:28:35.164Z,97901.25
2023-03-01T06:31:03.358Z,97890.41
2023-03-01T06:33:31.493Z,97892.22
2023-03-01T06:35:59.656Z,97893.19
2023-03-01T06:38:27.780Z,97895.00
2023-03-01T06:40:57.662Z,97897.59
2023-03-01T06:43:25.789Z,97908.25
2023-03-01T06:45:53.883Z,97905.56
2023-03-01T06:48:22.011Z,97906.44
2023-03-01T06:50:50.323Z,97908.25
2023-03-01T06:53:18.443Z,97910.09
2023-03-01T06:55:46.500Z,97912.00
2023-03-01T06:58:16.210Z,97919.19
2023-03-01T07:00:45.359Z,97910.34
2023-03-01T07:03:13.688Z,97911.28
2023-03-01T07:05:41.824Z,97906.88
2023-03-01T07:08:10.004Z,97912.16
2023-03-01T07:10:38.459Z,97917.53
2023-03-01T07:13:07.856Z,97920.22
2023-03-01T07:15:37.500Z,97920.31
2023-03-01T07:18:05.620Z,97926.56
2023-03-01T07:20:33.807Z,97929.25
2023-03-01T07:23:02.085Z,97927.50
2023-03-01T07:25:30.325Z,97940.06
2023-03-01T07:27:58.554Z,97938.25
2023-03-01T07:30:29.338Z,97930.19
2023-03-01T07:32:59.147Z,97934.69
2023-03-01T07:35:27.890Z,97937.38
2023-03-01T07:37:56.041Z,97942.75
2023-03-01T07:40:24.181Z,97942.75
2023-03-01T07:42:56.986Z,97943.63
2023-03-01T07:45:26.123Z,97944.59
2023-03-01T07:47:54.364Z,97941.97
2023-03-01T07:50:24.092Z,97939.28
2023-03-01T07:52:52.264Z,97939.28
2023-03-01T07:55:21.144Z,97941.03
2023-03-01T07:57:49.366Z,97944.50
2023-03-01T08:00:18.041Z,97949.78
2023-03-01T08:02:46.515Z,97947.09
2023-03-01T08:05:14.763Z,97953.25
2023-03-01T08:07:44.296Z,97950.56
2023-03-01T08:10:13.417Z,97937.13
2023-03-01T08:12:41.548Z,97938.88
2023-03-01T08:15:10.920Z,97934.44
2023-03-01T08:17:39.013Z,97929.94
2023-03-01T08:20:08.579Z,97943.38
2023-03-01T08:22:36.776Z,97940.84
2023-03-01T08:25:07.195Z,97940.84
2023-03-01T08:27:35.607Z,97944.41
2023-03-01T08:30:03.714Z,97940.00
2023-03-01T08:32:32.055Z,97939.03
2023-03-01T08:35:00.110Z,97934.53
2023-03-01T08:37:28.902Z,97933.56
2023-03-01T08:39:57.163Z,97929.06
2023-03-01T08:42:26.860Z,97931.75
2023-03-01T08:44:54.981Z,97931.66
2023-03-01T08:47:23.181Z,97924.56
2023-03-01T08:49:52.049Z,97930.97
2023-03-01T08:52:20.101Z,97928.28
2023-03-01T08:54:49.777Z,97922.91
2023-03-01T08:57:17.982Z,97922.03
2023-03-01T08:59:47.913Z,97915.81
2023-03-01T09:02:16.998Z,97913.97
2023-03-01T09:04:45.391Z,97907.75
2023-03-01T09:07:13.534Z,97909.56
2023-03-01T09:09:41.685Z,97905.91
2023-03-01T09:12:22.049Z,97903.22
2023-03-01T09:14:51.568Z,97893.34
2023-03-01T09:17:22.677Z,97895.16
2023-03-01T09:19:50.928Z,97879.03
2023-03-01T09:22:19.038Z,97880.78
2023-03-01T09:24:47.339Z,97869.16
2023-03-01T09:27:15.711Z,97872.72
2023-03-01T09:29:43.957Z,97878.09
2023-03-01T09:32:13.545Z,97870.03
2023-03-01T09:34:55.645Z,97866.47
2023-03-01T09:37:23.855Z,97863.69
2023-03-01T09:39:53.204Z,97866.38
2023-03-01T09:42:21.672Z,97861.88
2023-03-01T09:44:51.067Z,97856.50
2023-03-01T09:47:21.214Z,97849.31
2023-03-01T09:49:53.274Z,97856.41
2023-03-01T09:52:27.783Z,97853.81
2023-03-01T09:54:59.480Z,97854.69
2023-03-01T09:57:31.335Z,97856.41
2023-03-01T10:00:06.521Z,97848.34
2023-03-01T10:02:41.211Z,97848.34
2023-03-01T10:05:23.476Z,97837.59
2023-03-01T10:07:56.129Z,97842.13
2023-03-01T10:10:28.922Z,97841.16
2023-03-01T10:12:57.293Z,97836.75
2023-03-01T10:15:30.750Z,97835.88
2023-03-01T10:18:01.532Z,97833.19
2023-03-01T10:20:34.588Z,97835.88
2023-03-01T10:23:03.279Z,97835.78
2023-03-01T10:25:43.722Z,97831.38
2023-03-01T10:28:15.328Z,97836.81
2023-03-01T10:30:45.027Z,97844.88
2023-03-01T10:33:19.024Z,97842.13
2023-03-01T10:35:48.344Z,97849.31
2023-03-01T10:38:17.287Z,97853.81
2023-03-01T10:40:56.040Z,97859.19
2023-03-01T10:43:24.323Z,97875.31
2023-03-01T10:45:54.406Z,97880.69
2023-03-01T10:48:27.156Z,97879.81
2023-03-01T10:51:07.420Z,97889.63
2023-03-01T10:53:36.408Z,97894.13
2023-03-01T10:56:06.234Z,97895.94
2023-03-01T10:58:34.978Z,97902.28
2023-03-01T11:01:04.182Z,97896.91
2023-03-01T11:03:34.508Z,97896.03
2023-03-01T11:06:05.074Z,97892.47
2023-03-01T11:08:41.358Z,97902.28
2023-03-01T11:11:33.870Z,97895.94
2023-03-01T11:14:03.153Z,97881.72
2023-03-01T11:16:37.426Z,97879.03
2023-03-01T11:19:27.922Z,97882.59
2023-03-01T11:21:59.711Z,97874.53
2023-03-01T11:24:32.529Z,97875.50
2023-03-01T11:27:01.504Z,97869.16
2023-03-01T11:29:37.241Z,97865.59
2023-03-01T11:32:09.696Z,97865.59
2023-03-01T11:34:45.269Z,97848.63
2023-03-01T11:37:19.280Z,97840.56
2023-03-01T11:39:49.842Z,97832.50
2023-03-01T11:42:23.938Z,97827.13
2023-03-01T11:44:54.690Z,97829.81
2023-03-01T11:47:35.829Z,97830.66
2023-03-01T11:50:15.069Z,97820.88
2023-03-01T11:52:50.916Z,97831.53
2023-03-01T11:55:25.421Z,97827.97
2023-03-01T11:58:24.637Z,97822.59
2023-03-01T12:01:10.322Z,97817.22
2023-03-01T12:04:04.237Z,97819.06
2023-03-01T12:06:48.951Z,97827.97
2023-03-01T12:09:23.475Z,97814.53
2023-03-01T12:12:11.640Z,97803.78
2023-03-01T12:14:54.896Z,97795.72
2023-03-01T12:17:43.232Z,97788.53
2023-03-01T12:20:17.310Z,97785.84
2023-03-01T12:22:54.625Z,97779.59
2023-03-01T12:25:26.027Z,97765.22
2023-03-01T12:28:19.296Z,97761.66
2023-03-01T12:30:59.312Z,97767.91
2023-03-01T12:33:29.761Z,97763.50
2023-03-01T12:36:21.227Z,97751.03
2023-03-01T12:38:52.200Z,97749.09
2023-03-01T12:41:31.751Z,97744.69
2023-03-01T12:44:14.878Z,97742.88
2023-03-01T12:46:53.761Z,97733.09
2023-03-01T12:49:24.548Z,97733.94
2023-03-01T12:51:54.270Z,97728.56
2023-03-01T12:54:28.017Z,97721.38
2023-03-01T12:56:56.202Z,97716.97
2023-03-01T12:59:26.710Z,97707.06
2023-03-01T13:01:56.405Z,97701.69
2023-03-01T13:04:31.120Z,97694.50
2023-03-01T13:07:06.959Z,97697.09
2023-03-01T13:09:40.692Z,97686.44
2023-03-01T13:12:42.227Z,97680.19
2023-03-01T13:15:27.328Z,97682.03
2023-03-01T13:17:56.114Z,97674.81
2023-03-01T13:20:26.781Z,97672.13
2023-03-01T13:23:07.075Z,97671.28
2023-03-01T13:25:42.428Z,97664.16
2023-03-01T13:28:49.949Z,97656.09
2023-03-01T13:32:05.055Z,97656.09
2023-03-01T13:34:46.976Z,97651.72
2023-03-01T13:37:22.269Z,97657.91
2023-03-01T13:39:51.211Z,97656.22
2023-03-01T13:42:48.156Z,97663.28
2023-03-01T13:45:29.908Z,97654.56
2023-03-01T13:48:00.445Z,97649.41
2023-03-01T13:50:30.744Z,97651.22
2023-03-01T13:53:00.452Z,97650.44
2023-03-01T13:55:33.317Z,97651.38
2023-03-01T13:58:02.890Z,97645.22
2023-03-01T14:00:35.136Z,97645.22
2023-03-01T14:03:10.533Z,97645.34
2023-03-01T14:05:39.121Z,97643.63
2023-03-01T14:08:07.546Z,97642.75
2023-03-01T14:10:47.099Z,97638.31
2023-03-01T14:13:28.028Z,97638.31
2023-03-01T14:16:16.261Z,97633.91
2023-03-01T14:18:47.383Z,97642.88
2023-03-01T14:21:16.525Z,97632.34
2023-03-01T14:23:44.630Z,97626.00
2023-03-01T14:26:13.214Z,97623.41
2023-03-01T14:28:41.272Z,97627.91
2023-03-01T14:31:36.205Z,97618.03
2023-03-01T14:34:06.632Z,97608.28
2023-03-01T14:36:35.740Z,97607.50
2023-03-01T14:39:06.908Z,97608.34
2023-03-01T14:41:36.587Z,97602.13
2023-03-01T14:44:05.936Z,97602.19
2023-03-01T14:46:37.513Z,97607.56
2023-03-01T14:49:06.731Z,97607.56
2023-03-01T14:51:38.265Z,97608.53
2023-03-01T14:54:12.973Z,97605.84
2023-03-01T14:56:46.441Z,97598.75
2023-03-01T14:59:14.947Z,97602.03
2023-03-01T15:01:44.450Z,97606.34
2023-03-01T15:04:14.760Z,97599.13
2023-03-01T15:06:43.186Z,97600.97
2023-03-01T15:09:15.774Z,97604.44
2023-03-01T15:11:45.046Z,97600.00
2023-03-01T15:14:42.218Z,97607.06
2023-03-01T15:17:29.252Z,97608.59
2023-03-01T15:19:57.416Z,97604.56
2023-03-01T15:22:25.620Z,97598.75
2023-03-01T15:24:53.831Z,97598.44
2023-03-01T15:27:22.972Z,97601.88
2023-03-01T15:29:51.624Z,97601.72
2023-03-01T15:32:29.583Z,97604.41
2023-03-01T15:34:58.268Z,97607.75
2023-03-01T15:37:46.061Z,97604.88
2023-03-01T15:40:21.692Z,97604.94
2023-03-01T15:42:49.849Z,97604.78
2023-03-01T15:45:24.658Z,97601.81
2023-03-01T15:47:54.858Z,97597.28
2023-03-01T15:50:24.693Z,97601.59
2023-03-01T15:52:52.926Z,97599.78
2023-03-01T15:55:22.021Z,97587.09
2023-03-01T15:57:50.323Z,97584.22
2023-03-01T16:00:19.863Z,97588.44
2023-03-01T16:02:48.220Z,97588.34
2023-03-01T16:05:22.955Z,97593.41
2023-03-01T16:07:51.500Z,97588.81
2023-03-01T16:10:20.091Z,97595.72
2023-03-01T16:12:48.876Z,97594.84
2023-03-01T16:15:19.251Z,97594.00
2023-03-01T16:17:47.503Z,97600.44
2023-03-01T16:20:30.043Z,97593.41
2023-03-01T16:23:01.265Z,97600.63
2023-03-01T16:25:29.950Z,97605.03
2023-03-01T16:27:59.587Z,97593.22
2023-03-01T16:30:27.813Z,97594.00
2023-03-01T16:32:55.904Z,97596.59
2023-03-01T16:35:25.732Z,97588.41
2023-03-01T16:37:55.009Z,97580.94
2023-03-01T16:40:24.060Z,97584.19
2023-03-01T16:42:52.336Z,97584.09
2023-03-01T16:45:25.248Z,97588.53
2023-03-01T16:47:55.865Z,97589.41
2023-03-01T16:50:25.761Z,97591.09
2023-03-01T16:52:53.917Z,97585.63
2023-03-01T16:55:22.282Z,97595.44
2023-03-01T16:57:51.003Z,97595.44
2023-03-01T17:00:19.641Z,97587.09
2023-03-01T17:02:47.802Z,97590.94
2023-03-01T17:05:15.882Z,97588.63
2023-03-01T17:07:45.533Z,97598.63
2023-03-01T17:10:13.719Z,97600.72
2023-03-01T17:12:41.923Z,97602.75
2023-03-01T17:15:13.036Z,97605.25
2023-03-01T17:17:41.323Z,97606.88
2023-03-01T17:20:10.887Z,97603.13
2023-03-01T17:22:39.022Z,97604.88
2023-03-01T17:25:09.976Z,97607.47
2023-03-01T17:27:38.700Z,97608.13
2023-03-01T17:30:07.669Z,97606.19
2023-03-01T17:32:35.956Z,97609.75
2023-03-01T17:35:04.322Z,97605.44
2023-03-01T17:37:32.452Z,97608.34
2023-03-01T17:40:00.616Z,97615.63
2023-03-01T17:42:30.626Z,97617.34
2023-03-01T17:44:59.064Z,97616.47
2023-03-01T17:47:27.432Z,97616.47
2023-03-01T17:49:55.838Z,97623.78
2023-03-01T17:52:24.040Z,97618.38
2023-03-01T17:54:52.405Z,97614.88
2023-03-01T17:57:20.556Z,97614.88
2023-03-01T17:59:50.112Z,97618.38
2023-03-01T18:02:19.264Z,97616.69
2023-03-01T18:04:47.705Z,97611.19
2023-03-01T18:07:15.896Z,97611.97
2023-03-01T18:09:44.319Z,97607.19
2023-03-01T18:12:12.518Z,97611.56
2023-03-01T18:14:40.674Z,97613.22
2023-03-01T18:17:12.163Z,97614.81
2023-03-01T18:19:41.407Z,97611.84
2023-03-01T18:22:09.776Z,97613.88
2023-03-01T18:24:38.536Z,97616.78
2023-03-01T18:27:06.713Z,97616.84
2023-03-01T18:29:34.971Z,97623.19
2023-03-01T18:32:03.291Z,97620.63
2023-03-01T18:34:33.146Z,97618.78
2023-03-01T18:37:09.142Z,97623.31
2023-03-01T18:39:37.844Z,97615.25
2023-03-01T18:42:06.201Z,97617.81
2023-03-01T18:44:34.344Z,97620.50
2023-03-01T18:47:02.627Z,97629.72
2023-03-01T18:49:32.128Z,97620.13
2023-03-01T18:52:00.632Z,97625.91
2023-03-01T18:54:28.744Z,97621.66
2023-03-01T18:56:57.021Z,97620.03
2023-03-01T18:59:25.178Z,97619.25
2023-03-01T19:01:55.993Z,97625.69
2023-03-01T19:04:24.294Z,97633.97
2023-03-01T19:06:54.021Z,97631.38
2023-03-01T19:09:22.170Z,97625.22
2023-03-01T19:11:50.329Z,97632.53
2023-03-01T19:14:18.579Z,97628.09
2023-03-01T19:16:46.771Z,97632.59
2023-03-01T19:19:14.828Z,97626.44
2023-03-01T19:21:43.589Z,97630.09
2023-03-01T19:24:15.064Z,97628.47
2023-03-01T19:26:43.269Z,97625.88
2023-03-01T19:29:12.352Z,97623.31
2023-03-01T19:31:40.564Z,97625.22
2023-03-01T19:34:11.917Z,97630.59
2023-03-01T19:36:41.843Z,97636.81
2023-03-01T19:39:10.400Z,97627.97
2023-03-01T19:41:40.042Z,97627.19
2023-03-01T19:44:08.776Z,97631.81
2023-03-01T19:46:37.344Z,97636.34
2023-03-01T19:49:05.675Z,97642.53
2023-03-01T19:51:36.489Z,97639.09
2023-03-01T19:54:05.555Z,97644.41
2023-03-01T19:56:34.337Z,97640.72
2023-03-01T19:59:04.738Z,97641.72
2023-03-01T20:01:34.779Z,97646.09
2023-03-01T20:04:03.140Z,97651.38
2023-03-01T20:06:31.782Z,97654.06
2023-03-01T20:09:08.873Z,97639.78
2023-03-01T20:11:42.229Z,97645.06
2023-03-01T20:14:12.469Z,97654.00
2023-03-01T20:16:40.808Z,97651.22
2023-03-01T20:19:09.034Z,97651.09
2023-03-01T20:21:37.227Z,97653.69
2023-03-01T20:24:05.681Z,97657.25
2023-03-01T20:26:34.028Z,97654.47
2023-03-01T20:29:02.439Z,97662.34
2023-03-01T20:31:32.129Z,97664.06
2023-03-01T20:34:00.747Z,97659.66
2023-03-01T20:36:28.960Z,97660.59
2023-03-01T20:38:57.322Z,97666.94
2023-03-01T20:41:26.517Z,97662.47
2023-03-01T20:43:59.486Z,97663.41
2023-03-01T20:46:32.370Z,97666.09
2023-03-01T20:49:02.542Z,97663.41
2023-03-01T20:51:30.757Z,97672.44
2023-03-01T20:53:58.923Z,97671.34
2023-03-01T20:56:27.743Z,97665.03
2023-03-01T20:59:05.456Z,97665.91
2023-03-01T21:01:33.663Z,97667.63
2023-03-01T21:04:03.199Z,97669.44
2023-03-01T21:06:32.149Z,97672.91
2023-03-01T21:09:00.404Z,97665.91
2023-03-01T21:11:28.659Z,97672.13
2023-03-01T21:13:56.779Z,97676.56
2023-03-01T21:16:25.077Z,97673.78
2023-03-01T21:18:53.600Z,97664.84
2023-03-01T21:21:23.609Z,97668.41
2023-03-01T21:23:51.738Z,97665.81
2023-03-01T21:26:20.689Z,97663.13
2023-03-01T21:28:50.177Z,97659.56
2023-03-01T21:31:19.187Z,97667.63
2023-03-01T21:33:48.408Z,97660.53
2023-03-01T21:36:16.639Z,97662.34
2023-03-01T21:38:46.710Z,97661.38
2023-03-01T21:41:15.525Z,97657.84
2023-03-01T21:43:44.311Z,97655.16
2023-03-01T21:46:14.272Z,97650.72
2023-03-01T21:48:44.294Z,97643.53
2023-03-01T21:51:15.014Z,97648.03
2023-03-01T21:53:43.358Z,97647.16
2023-03-01T21:56:16.185Z,97642.66
2023-03-01T21:58:44.396Z,97636.41
2023-03-01T22:01:32.858Z,97640.09
2023-03-01T22:04:03.303Z,97640.09
2023-03-01T22:06:34.249Z,97647.16
2023-03-01T22:09:04.815Z,97642.78
2023-03-01T22:11:34.608Z,97633.84
2023-03-01T22:14:04.815Z,97638.34
2023-03-01T22:16:34.206Z,97634.81
2023-03-01T22:19:02.619Z,97632.97
2023-03-01T22:21:30.723Z,97631.25
2023-03-01T22:23:58.999Z,97626.75
2023-03-01T22:26:27.869Z,97631.25
2023-03-01T22:28:59.831Z,97632.13
2023-03-01T22:31:28.162Z,97634.81
2023-03-01T22:33:56.499Z,97630.38
2023-03-01T22:36:24.642Z,97632.19
2023-03-01T22:38:58.731Z,97622.31
2023-03-01T22:41:27.532Z,97621.44
2023-03-01T22:43:57.064Z,97615.25
2023-03-01T22:46:25.338Z,97609.88
2023-03-01T22:48:53.453Z,97611.69
2023-03-01T22:51:22.516Z,97611.78
2023-03-01T22:53:50.651Z,97607.34
2023-03-01T22:56:19.998Z,97601.97
2023-03-01T22:58:48.117Z,97606.47
2023-03-01T23:01:18.656Z,97607.34
2023-03-01T23:03:46.843Z,97607.34
2023-03-01T23:06:15.090Z,97606.47
2023-03-01T23:08:43.281Z,97599.38
2023-03-01T23:11:12.106Z,97586.84
2023-03-01T23:13:40.194Z,97604.75
2023-03-01T23:16:08.726Z,97593.25
2023-03-01T23:18:38.333Z,97596.81
2023-03-01T23:21:09.722Z,97595.94
2023-03-01T23:23:37.904Z,97593.25
2023-03-01T23:26:06.157Z,97596.81
2023-03-01T23:28:34.486Z,97592.38
2023-03-01T23:31:03.413Z,97587.00
2023-03-01T23:33:33.337Z,97594.19
2023-03-01T23:36:03.235Z,97585.28
2023-03-01T23:38:31.379Z,97587.97
2023-03-01T23:40:59.744Z,97590.66
2023-03-01T23:43:27.984Z,97592.47
2023-03-01T23:45:56.231Z,97587.09
2023-03-01T23:48:24.482Z,97595.28
2023-03-01T23:50:52.648Z,97588.06
2023-03-01T23:53:22.183Z,97590.75
2023-03-01T23:55:54.744Z,97585.47
2023-03-01T23:58:28.485Z,97587.28
